Time;durP1;ratioP1;P1;durP2;ratioP2;P2;SDS_P1;SDS_P2;PMS_P1;PMS_P2;Temp;Humidity;BMP_temperature;BMP_pressure;BME280_temperature;BME280_humidity;BME280_pressure;Samples;Min_cycle;Max_cycle;Signal;HPM_P1;HPM_P2
2023/05/20 00:02:05;;;;;;;4.32;3.92;;;11.50;99.90;;;;;;4984029;28;20051;-80
2023/05/20 00:04:31;;;;;;;3.80;3.50;;;11.50;99.90;;;;;;4990956;28;20650;-80
2023/05/20 00:06:56;;;;;;;5.93;3.95;;;11.50;99.90;;;;;;4983075;28;20041;-80
2023/05/20 00:09:22;;;;;;;6.47;4.15;;;11.50;99.90;;;;;;4989421;28;20027;-80
2023/05/20 00:11:47;;;;;;;4.40;3.75;;;11.40;99.90;;;;;;4994277;28;20034;-80
2023/05/20 00:14:13;;;;;;;6.13;4.05;;;11.40;99.90;;;;;;4990769;28;20169;-79
2023/05/20 00:16:39;;;;;;;5.97;3.85;;;11.30;99.90;;;;;;4989508;28;20042;-80
2023/05/20 00:19:04;;;;;;;5.15;4.30;;;11.30;99.90;;;;;;4994564;28;20038;-80
2023/05/20 00:21:30;;;;;;;4.80;4.25;;;11.30;99.90;;;;;;4989515;28;20485;-80
2023/05/20 00:23:56;;;;;;;5.95;3.80;;;11.30;99.90;;;;;;4992652;28;20046;-80
2023/05/20 00:26:22;;;;;;;5.88;4.22;;;11.30;99.90;;;;;;4991553;28;20103;-79
2023/05/20 00:28:48;;;;;;;5.20;4.00;;;11.30;99.90;;;;;;4989476;28;20034;-79
2023/05/20 00:31:13;;;;;;;4.15;3.78;;;11.30;99.90;;;;;;4996589;28;20062;-79
2023/05/20 00:33:39;;;;;;;4.57;4.18;;;11.30;99.90;;;;;;4986979;28;20035;-80
2023/05/20 00:36:05;;;;;;;4.43;3.97;;;11.30;99.90;;;;;;4993031;28;20022;-79
2023/05/20 00:38:30;;;;;;;5.00;4.15;;;11.30;99.90;;;;;;4995764;28;20513;-79
2023/05/20 00:40:56;;;;;;;5.18;4.68;;;11.20;99.90;;;;;;4990594;28;20023;-79
2023/05/20 00:43:24;;;;;;;7.10;3.83;;;11.20;99.90;;;;;;4985076;28;20046;-79
2023/05/20 00:45:50;;;;;;;4.25;3.85;;;11.20;99.90;;;;;;4986720;28;20059;-80
2023/05/20 00:48:16;;;;;;;4.18;3.78;;;11.30;99.90;;;;;;4988183;28;20034;-79
2023/05/20 00:50:42;;;;;;;4.70;4.20;;;11.30;99.90;;;;;;4992064;28;20046;-80
2023/05/20 00:53:09;;;;;;;5.75;4.47;;;11.30;99.90;;;;;;4986229;28;20055;-80
2023/05/20 00:55:34;;;;;;;4.65;4.15;;;11.30;99.90;;;;;;4996837;28;20093;-79
2023/05/20 00:58:00;;;;;;;5.35;4.20;;;11.20;99.90;;;;;;4981638;28;20050;-79
2023/05/20 01:00:26;;;;;;;4.97;4.20;;;11.20;99.90;;;;;;4990297;28;20027;-74
2023/05/20 01:02:53;;;;;;;5.72;4.25;;;11.20;99.90;;;;;;4984548;28;20037;-74
2023/05/20 01:05:19;;;;;;;5.40;4.10;;;11.20;99.90;;;;;;4982909;28;20463;-73
2023/05/20 01:07:45;;;;;;;5.22;4.30;;;11.10;99.90;;;;;;4984277;28;20101;-73
2023/05/20 01:10:11;;;;;;;5.55;4.40;;;11.00;99.90;;;;;;4980458;28;20061;-73
2023/05/20 01:12:45;;;;;;;4.88;4.47;;;10.90;99.90;;;;;;4983421;28;20043;-73
2023/05/20 01:15:14;;;;;;;4.80;3.90;;;10.80;99.90;;;;;;4981831;28;20075;-74
2023/05/20 01:17:44;;;;;;;5.95;4.35;;;10.80;99.90;;;;;;4984047;28;20418;-75
2023/05/20 01:20:11;;;;;;;4.78;4.30;;;10.90;99.90;;;;;;4982841;28;20058;-72
2023/05/20 01:22:57;;;;;;;6.45;4.72;;;10.80;99.90;;;;;;4986706;28;20113;-73
2023/05/20 01:25:23;;;;;;;4.88;4.38;;;10.90;99.90;;;;;;4984423;28;20038;-73
2023/05/20 01:27:51;;;;;;;5.22;4.72;;;10.90;99.90;;;;;;4981533;28;20225;-73
2023/05/20 01:30:18;;;;;;;5.97;4.47;;;11.00;99.90;;;;;;4982155;28;20039;-73
2023/05/20 01:32:49;;;;;;;5.68;4.63;;;11.00;99.90;;;;;;4982822;28;21000;-73
2023/05/20 01:35:15;;;;;;;6.47;4.75;;;11.00;99.90;;;;;;4983128;28;20032;-74
2023/05/20 01:37:42;;;;;;;6.78;4.80;;;10.90;99.90;;;;;;4984022;28;20237;-73
2023/05/20 01:40:10;;;;;;;5.30;4.53;;;11.00;99.90;;;;;;4976463;28;20610;-73
2023/05/20 01:42:37;;;;;;;5.30;4.50;;;11.00;99.90;;;;;;4979275;28;20031;-73
2023/05/20 01:45:03;;;;;;;5.25;4.60;;;11.00;99.90;;;;;;4977316;28;20038;-73
2023/05/20 01:47:30;;;;;;;5.32;4.45;;;11.00;99.90;;;;;;4985140;28;20039;-73
2023/05/20 01:49:55;;;;;;;5.78;4.38;;;11.00;99.90;;;;;;4985798;28;20076;-74
2023/05/20 01:52:22;;;;;;;5.18;4.65;;;11.10;99.90;;;;;;4984315;28;20475;-74
2023/05/20 01:54:50;;;;;;;7.43;4.82;;;11.10;99.90;;;;;;4984246;28;20042;-74
2023/05/20 01:57:22;;;;;;;6.07;4.90;;;11.10;99.90;;;;;;4980102;28;20510;-76
2023/05/20 01:59:48;;;;;;;7.32;4.97;;;11.10;99.90;;;;;;4985113;28;20078;-75
2023/05/20 02:02:14;;;;;;;8.77;4.80;;;11.10;99.90;;;;;;4980364;28;20121;-74
2023/05/20 02:04:42;;;;;;;5.95;4.75;;;11.10;99.90;;;;;;4981620;28;20451;-75
2023/05/20 02:07:08;;;;;;;7.35;4.55;;;11.20;99.90;;;;;;4978074;28;20467;-75
2023/05/20 02:09:34;;;;;;;5.30;4.55;;;11.10;99.90;;;;;;4984468;28;20046;-74
2023/05/20 02:11:59;;;;;;;5.35;4.45;;;11.20;99.90;;;;;;4984854;28;20027;-73
2023/05/20 02:14:25;;;;;;;6.70;4.63;;;11.20;99.90;;;;;;4986195;28;20027;-74
2023/05/20 02:16:51;;;;;;;6.20;4.70;;;11.20;99.90;;;;;;4979438;28;20563;-74
2023/05/20 02:19:22;;;;;;;5.65;4.82;;;11.20;99.90;;;;;;4974566;28;21029;-74
2023/05/20 02:21:48;;;;;;;6.93;5.18;;;11.20;99.90;;;;;;4984224;28;20030;-74
2023/05/20 02:24:13;;;;;;;4.72;4.32;;;11.30;99.90;;;;;;4989481;28;20053;-74
2023/05/20 02:26:40;;;;;;;6.10;4.88;;;11.30;99.90;;;;;;4983329;28;20038;-74
2023/05/20 02:29:05;;;;;;;5.60;4.70;;;11.30;99.90;;;;;;4981871;28;20015;-74
2023/05/20 02:31:31;;;;;;;8.30;5.05;;;11.30;99.90;;;;;;4981665;28;20066;-74
2023/05/20 02:33:56;;;;;;;6.05;4.75;;;11.30;99.90;;;;;;4979202;28;20031;-73
2023/05/20 02:36:22;;;;;;;6.07;5.35;;;11.30;99.90;;;;;;4983480;28;20044;-73
2023/05/20 02:38:48;;;;;;;5.57;4.45;;;11.30;99.90;;;;;;4983984;28;20070;-73
2023/05/20 02:41:13;;;;;;;6.00;4.63;;;11.40;99.90;;;;;;4982844;28;20039;-74
2023/05/20 02:43:39;;;;;;;5.80;4.78;;;11.40;99.90;;;;;;4980151;28;20049;-73
2023/05/20 02:46:05;;;;;;;6.32;5.07;;;11.50;99.90;;;;;;4978292;28;20030;-73
2023/05/20 02:48:31;;;;;;;6.07;5.00;;;11.50;99.90;;;;;;4981258;28;20070;-73
2023/05/20 02:50:58;;;;;;;6.63;4.80;;;11.50;99.90;;;;;;4983669;28;20070;-74
2023/05/20 02:53:23;;;;;;;5.60;4.60;;;11.50;99.90;;;;;;4978505;28;20065;-74
2023/05/20 02:55:49;;;;;;;8.00;5.20;;;11.50;99.90;;;;;;4979969;28;20031;-74
2023/05/20 02:58:16;;;;;;;5.97;4.90;;;11.60;99.90;;;;;;4986286;28;20402;-74
2023/05/20 03:00:42;;;;;;;7.40;5.18;;;11.60;99.90;;;;;;4979744;28;20077;-74
2023/05/20 03:03:12;;;;;;;6.30;5.18;;;11.60;99.90;;;;;;4983985;28;20046;-74
2023/05/20 03:05:38;;;;;;;6.20;4.88;;;11.60;99.90;;;;;;4986866;28;20054;-75
2023/05/20 03:08:09;;;;;;;7.00;4.68;;;11.60;99.90;;;;;;4978010;28;20074;-74
2023/05/20 03:10:38;;;;;;;5.15;4.65;;;11.60;99.90;;;;;;4977019;28;20407;-73
2023/05/20 03:13:10;;;;;;;7.07;4.95;;;11.60;99.90;;;;;;4977127;28;20526;-74
2023/05/20 03:15:39;;;;;;;5.30;4.43;;;11.60;99.90;;;;;;4980236;28;20030;-73
2023/05/20 03:18:07;;;;;;;5.82;4.80;;;11.60;99.90;;;;;;4978295;28;20031;-74
2023/05/20 03:20:41;;;;;;;6.53;5.03;;;11.70;99.90;;;;;;4962978;28;20101;-74
2023/05/20 03:23:08;;;;;;;5.88;4.85;;;11.70;99.90;;;;;;4981110;28;20034;-73
2023/05/20 03:25:34;;;;;;;5.72;4.90;;;11.70;99.90;;;;;;4978016;28;20053;-74
2023/05/20 03:28:00;;;;;;;6.57;5.35;;;11.70;99.90;;;;;;4982329;28;20383;-74
2023/05/20 03:30:26;;;;;;;5.80;4.75;;;11.70;99.90;;;;;;4983916;28;20101;-74
2023/05/20 03:32:56;;;;;;;6.10;5.10;;;11.70;99.90;;;;;;4979238;28;20066;-74
2023/05/20 03:35:22;;;;;;;5.57;4.72;;;11.70;99.90;;;;;;4968936;28;20061;-73
2023/05/20 03:37:47;;;;;;;7.32;4.95;;;11.70;99.90;;;;;;4981861;28;20030;-74
2023/05/20 03:40:13;;;;;;;7.57;4.75;;;11.80;99.90;;;;;;4965157;28;20050;-74
2023/05/20 03:42:39;;;;;;;6.10;4.50;;;11.80;99.90;;;;;;4981023;28;20061;-74
2023/05/20 03:45:05;;;;;;;6.40;5.35;;;11.80;99.90;;;;;;4987368;28;20034;-72
2023/05/20 03:47:31;;;;;;;6.82;4.95;;;11.80;99.90;;;;;;4982384;28;20038;-74
2023/05/20 03:49:57;;;;;;;8.55;5.43;;;11.70;99.90;;;;;;4983240;28;20048;-73
2023/05/20 03:52:22;;;;;;;6.00;5.07;;;11.70;99.90;;;;;;4985724;28;20055;-72
2023/05/20 03:54:48;;;;;;;5.55;4.97;;;11.70;99.90;;;;;;4985734;28;20043;-73
2023/05/20 03:57:14;;;;;;;6.20;5.22;;;11.80;99.90;;;;;;4986917;28;20035;-74
2023/05/20 03:59:40;;;;;;;6.57;5.03;;;11.80;99.90;;;;;;4979692;28;20031;-74
2023/05/20 04:02:06;;;;;;;6.97;5.47;;;11.80;99.90;;;;;;4984014;28;20866;-73
2023/05/20 04:04:32;;;;;;;6.47;5.60;;;11.80;99.90;;;;;;4967965;28;20050;-74
2023/05/20 04:06:59;;;;;;;7.93;5.40;;;11.70;99.90;;;;;;4985995;28;20027;-73
2023/05/20 04:09:25;;;;;;;6.38;5.18;;;11.70;99.90;;;;;;4980804;28;20579;-73
2023/05/20 04:11:51;;;;;;;6.85;5.13;;;11.70;99.90;;;;;;4985256;28;20062;-74
2023/05/20 04:14:17;;;;;;;6.10;5.13;;;11.70;99.90;;;;;;4985804;28;20034;-73
2023/05/20 04:16:44;;;;;;;6.63;5.15;;;11.80;99.90;;;;;;4978443;28;20452;-74
2023/05/20 04:19:10;;;;;;;9.93;5.15;;;11.80;99.90;;;;;;4985790;28;20034;-73
2023/05/20 04:21:36;;;;;;;7.38;5.57;;;11.80;99.90;;;;;;4983598;28;20385;-74
2023/05/20 04:24:02;;;;;;;8.80;5.32;;;11.80;99.90;;;;;;4981140;28;20059;-74
2023/05/20 04:26:27;;;;;;;6.20;5.45;;;11.80;99.90;;;;;;4985115;28;20090;-73
2023/05/20 04:28:54;;;;;;;8.00;5.70;;;11.80;99.90;;;;;;4982306;28;20049;-74
2023/05/20 04:31:25;;;;;;;8.05;5.53;;;11.80;99.90;;;;;;4986343;28;20560;-74
2023/05/20 04:33:52;;;;;;;7.30;5.30;;;11.80;99.90;;;;;;4985170;28;20026;-74
2023/05/20 04:36:18;;;;;;;7.40;5.30;;;11.80;99.90;;;;;;4985094;28;20030;-74
2023/05/20 04:38:44;;;;;;;8.73;5.32;;;11.80;99.90;;;;;;4982397;28;20043;-74
2023/05/20 04:41:10;;;;;;;6.80;5.53;;;11.80;99.90;;;;;;4985684;28;20050;-73
2023/05/20 04:43:38;;;;;;;6.72;5.43;;;11.80;99.90;;;;;;4981982;28;20042;-74
2023/05/20 04:46:04;;;;;;;7.13;4.97;;;11.80;99.90;;;;;;4984069;28;20109;-72
2023/05/20 04:48:31;;;;;;;6.50;5.25;;;11.80;99.90;;;;;;4987353;28;20054;-73
2023/05/20 04:50:56;;;;;;;6.43;5.28;;;11.80;99.90;;;;;;4984627;28;20035;-75
2023/05/20 04:53:22;;;;;;;7.47;5.10;;;11.80;99.90;;;;;;4985742;28;20057;-74
2023/05/20 04:55:52;;;;;;;6.88;5.80;;;11.90;99.90;;;;;;4988710;28;20034;-74
2023/05/20 04:58:18;;;;;;;6.35;5.28;;;11.90;99.90;;;;;;4984735;28;20026;-74
2023/05/20 05:00:44;;;;;;;7.05;5.38;;;11.90;99.90;;;;;;4984486;28;20043;-74
2023/05/20 05:03:13;;;;;;;7.95;5.55;;;11.90;99.90;;;;;;4981509;28;20114;-72
2023/05/20 05:05:39;;;;;;;6.78;5.50;;;11.90;99.90;;;;;;4980126;28;20031;-74
2023/05/20 05:08:05;;;;;;;8.13;6.15;;;11.90;99.90;;;;;;4983861;28;20030;-73
2023/05/20 05:10:32;;;;;;;6.70;5.30;;;11.90;99.90;;;;;;4984772;28;20106;-73
2023/05/20 05:12:58;;;;;;;8.75;5.40;;;12.00;99.90;;;;;;4970676;28;20038;-73
2023/05/20 05:15:24;;;;;;;7.32;5.57;;;12.00;99.90;;;;;;4987142;28;20038;-73
2023/05/20 05:17:50;;;;;;;7.53;5.68;;;12.00;99.90;;;;;;4981560;28;20509;-73
2023/05/20 05:20:16;;;;;;;10.63;5.95;;;12.10;99.90;;;;;;4979317;28;20051;-74
2023/05/20 05:22:42;;;;;;;7.88;5.30;;;12.10;99.90;;;;;;4984343;28;20403;-73
2023/05/20 05:25:09;;;;;;;7.97;5.95;;;12.00;99.90;;;;;;4984829;28;20030;-74
2023/05/20 05:27:34;;;;;;;8.43;5.63;;;12.10;99.90;;;;;;4981724;28;20038;-76
2023/05/20 05:30:05;;;;;;;9.90;6.10;;;12.10;99.90;;;;;;4985524;28;20546;-74
2023/05/20 05:32:30;;;;;;;9.18;6.70;;;12.10;99.90;;;;;;4983190;28;20693;-73
2023/05/20 05:34:56;;;;;;;9.52;6.85;;;12.10;99.90;;;;;;4986950;28;20105;-74
2023/05/20 05:37:22;;;;;;;9.15;6.53;;;12.10;99.90;;;;;;4970658;28;20022;-74
2023/05/20 05:39:48;;;;;;;8.55;6.30;;;12.00;99.90;;;;;;4983229;28;20109;-73
2023/05/20 05:42:14;;;;;;;9.07;6.25;;;12.10;99.90;;;;;;4982046;28;20039;-72
2023/05/20 05:44:39;;;;;;;11.07;7.72;;;12.10;99.90;;;;;;4969084;28;20039;-74
2023/05/20 05:47:05;;;;;;;9.77;7.20;;;12.10;99.90;;;;;;4989134;28;20030;-74
2023/05/20 05:49:32;;;;;;;11.27;7.05;;;12.10;99.90;;;;;;4982994;28;20038;-75
2023/05/20 05:51:58;;;;;;;12.27;7.85;;;12.20;99.90;;;;;;4978799;28;20142;-74
2023/05/20 05:54:24;;;;;;;13.63;8.23;;;12.20;99.90;;;;;;4984877;28;20098;-77
2023/05/20 05:56:55;;;;;;;13.32;8.57;;;12.20;99.90;;;;;;4986130;28;20029;-75
2023/05/20 05:59:21;;;;;;;12.57;7.70;;;12.10;99.90;;;;;;4991900;28;20023;-74
2023/05/20 06:01:46;;;;;;;12.73;8.68;;;12.10;99.90;;;;;;4980011;28;20046;-73
2023/05/20 06:04:12;;;;;;;12.13;8.45;;;12.10;99.90;;;;;;4987074;28;20066;-73
2023/05/20 06:06:37;;;;;;;12.13;8.18;;;12.10;99.90;;;;;;4981306;28;20101;-73
2023/05/20 06:09:03;;;;;;;14.10;8.25;;;12.10;99.90;;;;;;4985468;28;20039;-73
2023/05/20 06:11:29;;;;;;;13.70;8.88;;;12.10;99.90;;;;;;4981397;28;20086;-74
2023/05/20 06:13:54;;;;;;;13.25;8.25;;;12.20;99.90;;;;;;4985199;28;20038;-74
2023/05/20 06:16:20;;;;;;;13.88;8.27;;;12.20;99.90;;;;;;4978917;28;20105;-72
2023/05/20 06:18:48;;;;;;;11.50;7.78;;;12.20;99.90;;;;;;4981929;28;20062;-74
2023/05/20 06:21:14;;;;;;;13.00;8.80;;;12.20;99.90;;;;;;4983012;28;20098;-74
2023/05/20 06:23:40;;;;;;;13.23;8.52;;;12.30;99.90;;;;;;4983895;28;20099;-74
2023/05/20 06:26:06;;;;;;;14.95;8.60;;;12.30;99.90;;;;;;4984294;28;20101;-73
2023/05/20 06:28:31;;;;;;;11.88;8.05;;;12.30;99.90;;;;;;4981730;28;20034;-74
2023/05/20 06:30:57;;;;;;;9.75;7.68;;;12.30;99.90;;;;;;4978191;28;20043;-73
2023/05/20 06:33:24;;;;;;;11.90;8.25;;;12.30;99.90;;;;;;4982917;28;20045;-74
2023/05/20 06:35:51;;;;;;;10.27;7.72;;;12.40;99.90;;;;;;4986526;28;20061;-72
2023/05/20 06:38:17;;;;;;;12.70;7.55;;;12.40;99.90;;;;;;4984768;28;20054;-73
2023/05/20 06:40:43;;;;;;;13.40;8.20;;;12.40;99.90;;;;;;4979922;28;20034;-73
2023/05/20 06:43:08;;;;;;;10.63;7.70;;;12.50;99.90;;;;;;4969836;28;20031;-73
2023/05/20 06:45:34;;;;;;;11.35;8.15;;;12.50;99.90;;;;;;4978205;28;20045;-73
2023/05/20 06:48:00;;;;;;;12.07;8.15;;;12.50;99.90;;;;;;4972111;28;20034;-74
2023/05/20 06:50:27;;;;;;;11.13;7.85;;;12.60;99.90;;;;;;4979757;28;20047;-76
2023/05/20 06:52:52;;;;;;;10.93;8.20;;;12.50;99.90;;;;;;4980377;28;20100;-74
2023/05/20 06:55:18;;;;;;;11.80;7.80;;;12.60;99.90;;;;;;4984088;28;20042;-74
2023/05/20 06:57:44;;;;;;;10.00;7.80;;;12.60;99.90;;;;;;4986796;28;20037;-74
2023/05/20 07:00:12;;;;;;;12.02;7.60;;;12.60;99.90;;;;;;4952845;28;20034;-73
2023/05/20 07:02:38;;;;;;;10.23;7.47;;;12.70;99.90;;;;;;4984853;28;20043;-73
2023/05/20 07:05:04;;;;;;;13.13;7.95;;;12.70;99.90;;;;;;4979151;28;20080;-73
2023/05/20 07:07:30;;;;;;;11.77;8.45;;;12.80;99.90;;;;;;4979017;28;20033;-74
2023/05/20 07:09:56;;;;;;;10.25;7.80;;;12.80;99.90;;;;;;4979708;28;20030;-74
2023/05/20 07:12:22;;;;;;;12.82;8.32;;;12.80;99.90;;;;;;4984447;28;20556;-74
2023/05/20 07:14:47;;;;;;;11.07;8.60;;;12.80;99.90;;;;;;4982687;28;20038;-73
2023/05/20 07:17:13;;;;;;;10.63;8.40;;;12.80;99.90;;;;;;4981555;28;20049;-75
2023/05/20 07:19:39;;;;;;;11.27;8.07;;;12.90;99.90;;;;;;4984150;28;20558;-75
2023/05/20 07:22:05;;;;;;;10.32;7.72;;;12.90;99.90;;;;;;4982565;28;20053;-74
2023/05/20 07:24:30;;;;;;;10.77;7.60;;;12.90;99.90;;;;;;4981474;28;20023;-72
2023/05/20 07:26:56;;;;;;;10.40;7.57;;;13.10;99.90;;;;;;4987252;28;20034;-74
2023/05/20 07:29:22;;;;;;;10.48;7.80;;;13.20;99.90;;;;;;4981721;28;20479;-74
2023/05/20 07:31:47;;;;;;;11.85;7.72;;;13.30;99.90;;;;;;4978448;28;20089;-75
2023/05/20 07:34:13;;;;;;;9.95;7.22;;;13.40;99.90;;;;;;4969129;28;20034;-74
2023/05/20 07:36:38;;;;;;;10.80;7.45;;;13.50;99.90;;;;;;4984435;28;20046;-74
2023/05/20 07:39:04;;;;;;;10.38;7.90;;;13.50;99.90;;;;;;4981931;28;20108;-74
2023/05/20 07:41:30;;;;;;;10.02;7.90;;;13.50;99.90;;;;;;4979750;28;20043;-73
2023/05/20 07:43:56;;;;;;;10.07;7.88;;;13.50;99.90;;;;;;4981141;28;20082;-75
2023/05/20 07:46:21;;;;;;;10.13;8.05;;;13.50;99.90;;;;;;4981636;28;20467;-72
2023/05/20 07:48:47;;;;;;;11.90;9.13;;;13.50;99.90;;;;;;4984403;28;20022;-73
2023/05/20 07:51:12;;;;;;;11.43;8.43;;;13.70;99.90;;;;;;4985204;28;20042;-74
2023/05/20 07:53:38;;;;;;;10.63;8.55;;;13.80;99.90;;;;;;4983106;28;20097;-73
2023/05/20 07:56:04;;;;;;;13.00;9.48;;;13.80;99.90;;;;;;4968354;28;20038;-75
2023/05/20 07:58:31;;;;;;;10.77;8.02;;;13.90;99.90;;;;;;4978940;28;21336;-74
2023/05/20 08:00:56;;;;;;;13.88;8.15;;;13.90;99.90;;;;;;4983655;28;20045;-74
2023/05/20 08:03:22;;;;;;;10.43;8.68;;;14.00;99.90;;;;;;4980457;28;20031;-73
2023/05/20 08:05:48;;;;;;;9.68;8.05;;;14.10;99.90;;;;;;4979898;28;20493;-73
2023/05/20 08:08:15;;;;;;;11.20;8.57;;;14.10;99.90;;;;;;4983519;28;20038;-74
2023/05/20 08:10:40;;;;;;;9.63;7.55;;;14.20;99.90;;;;;;4980017;28;20437;-72
2023/05/20 08:13:06;;;;;;;8.85;7.78;;;14.20;99.90;;;;;;4982938;28;20114;-74
2023/05/20 08:15:32;;;;;;;10.35;7.50;;;14.30;99.90;;;;;;4988207;28;20133;-74
2023/05/20 08:17:57;;;;;;;12.60;8.23;;;14.50;99.90;;;;;;4979778;28;20109;-74
2023/05/20 08:20:25;;;;;;;10.73;7.85;;;14.80;99.90;;;;;;4982606;28;20043;-73
2023/05/20 08:22:51;;;;;;;8.57;7.68;;;15.10;99.90;;;;;;4983155;28;20543;-73
2023/05/20 08:25:17;;;;;;;10.38;7.93;;;15.20;99.90;;;;;;4978004;28;20114;-73
2023/05/20 08:27:42;;;;;;;9.63;7.60;;;15.10;99.90;;;;;;4984192;28;20035;-74
2023/05/20 08:30:09;;;;;;;10.60;7.63;;;15.00;99.90;;;;;;4964397;28;20749;-73
2023/05/20 08:32:35;;;;;;;10.65;7.20;;;15.00;99.90;;;;;;4981473;28;20097;-73
2023/05/20 08:35:01;;;;;;;8.43;6.78;;;15.20;99.90;;;;;;4983292;28;20023;-74
2023/05/20 08:37:30;;;;;;;9.68;6.72;;;15.30;99.90;;;;;;4978763;28;20069;-72
2023/05/20 08:39:56;;;;;;;7.40;6.63;;;15.40;99.90;;;;;;4982958;28;20035;-74
2023/05/20 08:42:23;;;;;;;9.55;7.22;;;15.70;99.90;;;;;;4982588;28;20130;-74
2023/05/20 08:44:53;;;;;;;9.18;6.70;;;15.70;99.90;;;;;;4981441;28;20117;-73
2023/05/20 08:47:21;;;;;;;7.88;7.07;;;15.70;99.90;;;;;;4980063;28;20038;-75
2023/05/20 08:49:48;;;;;;;8.52;7.63;;;15.90;99.90;;;;;;4986340;28;20026;-73
2023/05/20 08:52:16;;;;;;;7.82;6.45;;;16.00;99.90;;;;;;4980597;28;20059;-74
2023/05/20 08:54:48;;;;;;;7.25;6.50;;;16.00;99.90;;;;;;4965561;28;20125;-73
2023/05/20 08:57:14;;;;;;;9.82;8.30;;;16.20;99.90;;;;;;4980531;28;20057;-74
2023/05/20 08:59:42;;;;;;;8.65;6.50;;;16.30;99.90;;;;;;4980463;28;20577;-74
2023/05/20 09:02:09;;;;;;;8.38;7.20;;;16.20;99.90;;;;;;4979932;28;20070;-74
2023/05/20 09:04:36;;;;;;;8.40;7.25;;;16.20;99.90;;;;;;4977585;28;20122;-74
2023/05/20 09:07:01;;;;;;;8.38;6.93;;;16.40;99.90;;;;;;4982381;28;20403;-75
2023/05/20 09:09:28;;;;;;;8.05;7.00;;;16.50;99.90;;;;;;4982347;28;20034;-73
2023/05/20 09:11:54;;;;;;;8.88;6.70;;;16.70;99.90;;;;;;4982970;28;20470;-73
2023/05/20 09:14:20;;;;;;;10.98;7.38;;;16.80;99.90;;;;;;4967719;28;20073;-74
2023/05/20 09:16:47;;;;;;;8.38;7.05;;;16.80;99.90;;;;;;4987732;28;20030;-74
2023/05/20 09:19:12;;;;;;;8.63;6.97;;;16.70;99.90;;;;;;4986914;28;20027;-73
2023/05/20 09:21:40;;;;;;;7.70;6.82;;;16.80;99.90;;;;;;4980053;28;20062;-73
2023/05/20 09:24:06;;;;;;;7.43;5.82;;;17.10;99.90;;;;;;4984003;28;20455;-72
2023/05/20 09:26:32;;;;;;;7.90;6.15;;;17.40;99.90;;;;;;4981322;28;20035;-73
2023/05/20 09:28:58;;;;;;;8.02;6.35;;;17.70;99.90;;;;;;4983514;28;20041;-72
2023/05/20 09:31:29;;;;;;;6.72;6.00;;;17.80;99.90;;;;;;4978684;28;20047;-73
2023/05/20 09:33:55;;;;;;;7.35;5.57;;;17.90;99.90;;;;;;4981326;28;20045;-73
2023/05/20 09:36:23;;;;;;;6.40;5.70;;;17.90;99.90;;;;;;4986730;28;20070;-74
2023/05/20 09:38:52;;;;;;;8.68;6.15;;;17.80;99.90;;;;;;4978408;28;20762;-77
2023/05/20 09:41:22;;;;;;;8.48;5.43;;;17.80;99.90;;;;;;4981545;28;20057;-76
2023/05/20 09:43:49;;;;;;;8.30;5.95;;;18.00;99.90;;;;;;4984532;28;20026;-75
2023/05/20 09:46:15;;;;;;;10.85;6.20;;;18.00;99.90;;;;;;4980263;28;20053;-73
2023/05/20 09:48:40;;;;;;;6.55;5.57;;;17.90;99.90;;;;;;4978977;28;20035;-73
2023/05/20 09:51:06;;;;;;;6.88;5.85;;;17.90;99.90;;;;;;4973968;28;20168;-73
2023/05/20 09:53:32;;;;;;;6.55;5.40;;;18.00;99.90;;;;;;4983026;28;20105;-73
2023/05/20 09:55:58;;;;;;;5.95;5.15;;;18.10;99.90;;;;;;4978803;28;20069;-72
2023/05/20 09:58:24;;;;;;;6.80;5.43;;;18.20;99.90;;;;;;4983827;28;20035;-71
2023/05/20 10:00:52;;;;;;;8.32;5.50;;;18.20;99.90;;;;;;4980252;28;20038;-72
2023/05/20 10:03:21;;;;;;;6.22;5.22;;;18.30;99.90;;;;;;4979478;28;20026;-72
2023/05/20 10:06:19;;;;;;;5.65;5.03;;;18.40;99.90;;;;;;4978258;28;20092;-73
2023/05/20 10:09:18;;;;;;;7.07;5.00;;;18.50;99.90;;;;;;4940096;28;20054;-73
2023/05/20 10:12:09;;;;;;;6.15;4.75;;;18.40;99.90;;;;;;4976223;28;20554;-73
2023/05/20 10:14:50;;;;;;;8.43;5.75;;;18.60;99.90;;;;;;4976653;28;20053;-74
2023/05/20 10:17:29;;;;;;;5.45;4.72;;;18.70;99.90;;;;;;4980008;28;20097;-73
2023/05/20 10:20:01;;;;;;;6.00;5.07;;;18.60;99.90;;;;;;4980309;28;20023;-73
2023/05/20 10:22:28;;;;;;;5.88;4.60;;;18.60;99.90;;;;;;4979883;28;20084;-73
2023/05/20 10:25:07;;;;;;;6.40;4.47;;;18.50;99.90;;;;;;4977661;28;20038;-73
2023/05/20 10:27:46;;;;;;;6.57;4.90;;;18.40;99.90;;;;;;4981062;28;20394;-73
2023/05/20 10:30:19;;;;;;;5.30;4.63;;;18.60;99.90;;;;;;4981575;28;20035;-73
2023/05/20 10:32:56;;;;;;;5.32;3.97;;;18.70;99.90;;;;;;4970839;28;20058;-73
2023/05/20 10:35:25;;;;;;;8.15;5.00;;;18.90;99.90;;;;;;4982675;28;20446;-74
2023/05/20 10:37:53;;;;;;;4.32;3.65;;;19.20;99.90;;;;;;4991395;28;20022;-81
2023/05/20 10:40:20;;;;;;;5.25;4.60;;;19.40;99.90;;;;;;4991520;28;20022;-76
2023/05/20 10:42:47;;;;;;;7.78;4.00;;;19.90;99.90;;;;;;4987745;28;20031;-75
2023/05/20 10:45:25;;;;;;;6.03;4.30;;;19.90;99.90;;;;;;4983546;28;20038;-76
2023/05/20 10:47:55;;;;;;;7.10;4.40;;;19.80;99.90;;;;;;4985780;28;20137;-74
2023/05/20 10:50:32;;;;;;;5.05;4.15;;;19.90;99.90;;;;;;4979058;28;20038;-75
2023/05/20 10:53:05;;;;;;;4.57;3.80;;;19.90;99.90;;;;;;4987719;28;20198;-77
2023/05/20 10:55:38;;;;;;;5.32;3.25;;;19.70;99.90;;;;;;4990610;28;20042;-77
2023/05/20 10:58:05;;;;;;;4.97;3.88;;;19.80;99.90;;;;;;4983064;28;20133;-76
2023/05/20 11:00:35;;;;;;;4.18;3.67;;;19.60;99.90;;;;;;4986684;28;20120;-77
2023/05/20 11:03:01;;;;;;;4.68;3.72;;;19.50;99.90;;;;;;4994667;28;20097;-82
2023/05/20 11:05:28;;;;;;;5.10;4.20;;;19.80;99.90;;;;;;4992013;28;20037;-75
2023/05/20 11:08:05;;;;;;;5.22;4.32;;;19.80;99.90;;;;;;4987904;28;20038;-73
2023/05/20 11:10:33;;;;;;;4.50;3.70;;;19.60;99.90;;;;;;4981829;28;20049;-74
2023/05/20 11:13:01;;;;;;;4.18;3.78;;;19.60;99.90;;;;;;4979978;28;20117;-73
2023/05/20 11:15:26;;;;;;;8.77;4.38;;;19.70;99.90;;;;;;4986937;28;20026;-74
2023/05/20 11:17:56;;;;;;;4.53;3.58;;;19.80;99.90;;;;;;4989573;28;20113;-75
2023/05/20 11:20:23;;;;;;;5.22;3.67;;;19.80;99.90;;;;;;4986369;28;20030;-74
2023/05/20 11:22:56;;;;;;;3.95;3.20;;;19.80;99.90;;;;;;4985682;28;20083;-76
2023/05/20 11:25:22;;;;;;;4.60;4.20;;;20.10;99.90;;;;;;4987855;28;20034;-75
2023/05/20 11:27:48;;;;;;;4.78;4.00;;;20.20;99.90;;;;;;4993444;28;20161;-76
2023/05/20 11:30:15;;;;;;;4.18;3.78;;;20.20;99.90;;;;;;4995241;28;20035;-75
2023/05/20 11:32:55;;;;;;;4.40;4.00;;;20.20;99.90;;;;;;4992899;28;20049;-75
2023/05/20 11:35:22;;;;;;;6.47;4.22;;;20.30;99.90;;;;;;4987264;28;20038;-73
2023/05/20 11:38:04;;;;;;;5.38;3.60;;;20.00;99.90;;;;;;4993203;28;20167;-79
2023/05/20 11:40:31;;;;;;;4.32;3.13;;;20.00;99.90;;;;;;4988662;28;20059;-76
2023/05/20 11:43:00;;;;;;;3.83;3.33;;;20.10;99.90;;;;;;4991389;28;20030;-78
2023/05/20 11:45:28;;;;;;;4.05;3.65;;;20.20;99.90;;;;;;4993312;28;20066;-77
2023/05/20 11:48:04;;;;;;;4.53;3.63;;;20.20;99.90;;;;;;4990674;28;20459;-78
2023/05/20 11:50:35;;;;;;;4.35;3.60;;;20.20;99.90;;;;;;4994720;28;20390;-76
2023/05/20 11:53:06;;;;;;;5.57;3.13;;;20.00;99.90;;;;;;4993119;28;20042;-74
2023/05/20 11:55:32;;;;;;;4.13;3.47;;;20.20;99.90;;;;;;4993201;28;21594;-76
2023/05/20 11:57:59;;;;;;;4.05;3.28;;;20.40;99.90;;;;;;4988526;28;20036;-79
2023/05/20 12:00:25;;;;;;;4.40;3.65;;;20.70;99.90;;;;;;4992001;28;20109;-75
2023/05/20 12:02:51;;;;;;;4.45;3.10;;;21.00;99.90;;;;;;4986890;28;20458;-74
2023/05/20 12:05:17;;;;;;;3.28;2.95;;;21.20;99.90;;;;;;4998398;28;20030;-75
2023/05/20 12:07:43;;;;;;;5.57;3.08;;;21.20;99.90;;;;;;4988440;28;20049;-74
2023/05/20 12:10:09;;;;;;;4.68;3.45;;;21.20;99.90;;;;;;4976950;28;20026;-74
2023/05/20 12:12:35;;;;;;;5.32;4.00;;;21.50;99.90;;;;;;4983893;28;20037;-74
2023/05/20 12:15:03;;;;;;;4.70;4.20;;;21.50;99.90;;;;;;4982804;28;20033;-75
2023/05/20 12:17:29;;;;;;;7.30;4.53;;;21.50;99.90;;;;;;4984314;28;20034;-76
2023/05/20 12:19:55;;;;;;;4.30;3.88;;;21.30;99.90;;;;;;4975446;28;20015;-75
2023/05/20 12:22:26;;;;;;;4.68;3.78;;;21.10;99.90;;;;;;4992485;28;20122;-78
2023/05/20 12:24:56;;;;;;;4.55;3.85;;;21.20;99.90;;;;;;4981530;28;20034;-76
2023/05/20 12:27:22;;;;;;;5.70;3.10;;;21.40;99.90;;;;;;4995469;28;20117;-81
2023/05/20 12:29:48;;;;;;;4.13;3.20;;;21.50;99.90;;;;;;4992148;28;20035;-80
2023/05/20 12:32:13;;;;;;;5.55;3.30;;;21.70;99.90;;;;;;4992657;28;20046;-76
2023/05/20 12:34:39;;;;;;;4.07;3.70;;;21.60;99.90;;;;;;4992398;28;20031;-75
2023/05/20 12:37:06;;;;;;;5.95;3.65;;;21.60;99.90;;;;;;4988522;28;20038;-75
2023/05/20 12:39:31;;;;;;;4.63;3.50;;;21.30;99.90;;;;;;4989989;28;20097;-75
2023/05/20 12:41:57;;;;;;;4.18;3.78;;;21.30;99.90;;;;;;4986573;28;20061;-75
2023/05/20 12:44:22;;;;;;;3.58;3.28;;;21.40;99.90;;;;;;4987821;28;20399;-76
2023/05/20 12:46:48;;;;;;;3.45;3.15;;;21.40;99.90;;;;;;4988966;28;20035;-76